createdAt,value
2022-08-18T00:01:15.907Z,21.91
2022-08-18T00:03:55.640Z,21.92
2022-08-18T00:06:29.572Z,21.95
2022-08-18T00:09:00.267Z,21.93
2022-08-18T00:11:41.353Z,21.95
2022-08-18T00:14:21.854Z,21.93
2022-08-18T00:16:53.897Z,21.92
2022-08-18T00:19:45.456Z,21.88
2022-08-18T00:22:16.110Z,21.90
2022-08-18T00:24:47.645Z,21.87
2022-08-18T00:27:22.929Z,21.87
2022-08-18T00:29:53.846Z,21.78
2022-08-18T00:32:33.848Z,21.52
2022-08-18T00:35:28.823Z,21.37
2022-08-18T00:37:59.795Z,21.37
2022-08-18T00:40:44.734Z,21.37
2022-08-18T00:43:20.929Z,21.47
2022-08-18T00:45:49.604Z,21.49
2022-08-18T00:48:18.739Z,21.45
2022-08-18T00:51:01.648Z,21.37
2022-08-18T00:53:49.647Z,21.31
2022-08-18T00:56:26.829Z,21.32
2022-08-18T00:59:10.158Z,21.39
2022-08-18T01:01:40.075Z,21.52
2022-08-18T01:04:17.829Z,21.49
2022-08-18T01:06:58.676Z,21.57
2022-08-18T01:09:27.224Z,21.50
2022-08-18T01:11:56.547Z,21.48
2022-08-18T01:14:25.106Z,21.48
2022-08-18T01:17:11.989Z,21.50
2022-08-18T01:19:59.366Z,21.52
2022-08-18T01:22:35.751Z,21.46
2022-08-18T01:25:26.126Z,21.22
2022-08-18T01:27:59.787Z,21.20
2022-08-18T01:30:31.291Z,21.10
2022-08-18T01:33:00.090Z,20.99
2022-08-18T01:35:28.747Z,20.94
2022-08-18T01:38:06.583Z,20.92
2022-08-18T01:41:11.210Z,20.87
2022-08-18T01:43:22.993Z,20.90
2022-08-18T01:45:51.461Z,20.96
2022-08-18T01:48:19.644Z,20.99
2022-08-18T01:50:49.389Z,21.02
2022-08-18T01:53:19.173Z,21.06
2022-08-18T01:55:47.356Z,21.10
2022-08-18T01:58:15.544Z,21.14
2022-08-18T02:00:43.929Z,21.22
2022-08-18T02:03:14.457Z,21.32
2022-08-18T02:05:51.207Z,21.48
2022-08-18T02:08:19.429Z,21.57
2022-08-18T02:10:47.979Z,21.61
2022-08-18T02:13:16.139Z,21.60
2022-08-18T02:15:44.608Z,21.56
2022-08-18T02:18:32.513Z,21.62
2022-08-18T02:21:13.863Z,21.61
2022-08-18T02:23:44.937Z,21.60
2022-08-18T02:26:23.428Z,21.53
2022-08-18T02:28:54.051Z,21.58
2022-08-18T02:31:23.866Z,21.57
2022-08-18T02:33:53.091Z,21.53
2022-08-18T02:36:25.237Z,21.52
2022-08-18T02:38:58.756Z,21.49
2022-08-18T02:41:33.136Z,21.50
2022-08-18T02:44:01.809Z,21.55
2022-08-18T02:46:31.279Z,21.63
2022-08-18T02:49:03.230Z,21.72
2022-08-18T02:51:31.925Z,21.66
2022-08-18T02:54:00.217Z,21.64
2022-08-18T02:56:41.371Z,21.59
2022-08-18T02:59:14.683Z,21.52
2022-08-18T03:01:46.270Z,21.33
2022-08-18T03:04:16.280Z,21.23
2022-08-18T03:06:45.584Z,21.11
2022-08-18T03:09:16.855Z,21.00
2022-08-18T03:11:45.631Z,20.88
2022-08-18T03:14:14.757Z,20.84
2022-08-18T03:16:54.211Z,20.67
2022-08-18T03:19:26.218Z,20.57
2022-08-18T03:21:58.174Z,20.29
2022-08-18T03:24:28.805Z,20.34
2022-08-18T03:26:57.807Z,20.35
2022-08-18T03:29:31.711Z,20.40
2022-08-18T03:32:06.701Z,20.46
2022-08-18T03:34:35.452Z,20.44
2022-08-18T03:37:03.786Z,20.28
2022-08-18T03:39:32.051Z,20.27
2022-08-18T03:42:01.861Z,20.24
2022-08-18T03:44:35.696Z,20.03
2022-08-18T03:47:04.172Z,19.92
2022-08-18T03:49:33.865Z,19.93
2022-08-18T03:52:02.958Z,19.82
2022-08-18T03:54:32.596Z,19.90
2022-08-18T03:57:00.998Z,19.82
2022-08-18T03:59:32.060Z,19.82
2022-08-18T04:02:02.491Z,19.83
2022-08-18T04:04:30.775Z,19.68
2022-08-18T04:07:10.045Z,19.61
2022-08-18T04:09:39.278Z,19.54
2022-08-18T04:12:15.477Z,19.48
2022-08-18T04:14:49.008Z,19.44
2022-08-18T04:17:24.344Z,19.40
2022-08-18T04:19:54.569Z,19.33
2022-08-18T04:22:24.928Z,19.40
2022-08-18T04:24:53.802Z,19.41
2022-08-18T04:27:23.069Z,19.39
2022-08-18T04:29:51.555Z,19.41
2022-08-18T04:32:19.829Z,19.50
2022-08-18T04:34:48.044Z,19.65
2022-08-18T04:37:16.874Z,19.72
2022-08-18T04:39:45.926Z,19.73
2022-08-18T04:42:17.553Z,19.65
2022-08-18T04:44:46.201Z,19.69
2022-08-18T04:47:14.488Z,19.73
2022-08-18T04:49:43.719Z,19.80
2022-08-18T04:52:40.420Z,19.72
2022-08-18T04:55:10.422Z,19.84
2022-08-18T04:57:39.225Z,19.91
2022-08-18T05:00:10.348Z,19.97
2022-08-18T05:02:38.603Z,20.05
2022-08-18T05:05:10.110Z,20.17
2022-08-18T05:07:46.847Z,20.17
2022-08-18T05:10:17.744Z,20.20
2022-08-18T05:12:48.565Z,20.24
2022-08-18T05:15:18.784Z,20.27
2022-08-18T05:17:47.643Z,20.35
2022-08-18T05:20:20.110Z,20.32
2022-08-18T05:22:48.317Z,20.34
2022-08-18T05:25:17.221Z,20.38
2022-08-18T05:27:46.365Z,20.46
2022-08-18T05:30:15.441Z,20.48
2022-08-18T05:32:50.143Z,20.51
2022-08-18T05:35:26.963Z,20.63
2022-08-18T05:37:58.120Z,20.82
2022-08-18T05:40:26.582Z,20.89
2022-08-18T05:42:57.376Z,21.14
2022-08-18T05:45:26.317Z,21.30
2022-08-18T05:48:02.358Z,21.55
2022-08-18T05:50:36.529Z,21.79
2022-08-18T05:53:15.510Z,21.86
2022-08-18T05:56:23.620Z,21.89
2022-08-18T05:58:55.557Z,21.95
2022-08-18T06:01:32.995Z,21.95
2022-08-18T06:04:28.171Z,21.93
2022-08-18T06:07:02.440Z,21.87
2022-08-18T06:09:50.531Z,21.82
2022-08-18T06:12:49.286Z,21.71
2022-08-18T06:15:32.395Z,21.67
2022-08-18T06:18:22.673Z,21.70
2022-08-18T06:20:56.868Z,21.65
2022-08-18T06:23:52.440Z,21.50
2022-08-18T06:26:49.580Z,21.34
2022-08-18T06:29:42.635Z,21.75
2022-08-18T06:32:30.659Z,22.04
2022-08-18T06:35:19.143Z,22.41
2022-08-18T06:38:05.609Z,22.41
2022-08-18T06:40:33.828Z,22.38
2022-08-18T06:43:02.338Z,22.21
2022-08-18T06:45:39.603Z,22.11
2022-08-18T06:48:15.535Z,22.04
2022-08-18T06:50:57.954Z,22.16
2022-08-18T06:53:55.537Z,22.05
2022-08-18T06:56:43.939Z,21.99
2022-08-18T06:59:26.357Z,21.98
2022-08-18T07:02:09.265Z,21.69
2022-08-18T07:04:41.403Z,21.52
2022-08-18T07:07:20.563Z,21.49
2022-08-18T07:09:49.631Z,21.48
2022-08-18T07:12:29.051Z,21.46
2022-08-18T07:15:04.036Z,21.31
2022-08-18T07:17:42.295Z,20.80
2022-08-18T07:20:17.889Z,20.55
2022-08-18T07:22:59.768Z,20.63
2022-08-18T07:25:44.125Z,20.66
2022-08-18T07:28:38.800Z,20.69
2022-08-18T07:31:19.773Z,20.65
2022-08-18T07:34:09.996Z,20.61
2022-08-18T07:37:01.314Z,20.52
2022-08-18T07:39:44.035Z,20.47
2022-08-18T07:43:01.428Z,20.54
2022-08-18T07:45:45.447Z,20.50
2022-08-18T07:48:38.051Z,20.42
2022-08-18T07:51:21.850Z,20.36
2022-08-18T07:54:47.145Z,20.23
2022-08-18T07:57:15.277Z,20.25
2022-08-18T08:00:05.117Z,20.11
2022-08-18T08:03:04.285Z,20.03
2022-08-18T08:05:38.670Z,19.91
2022-08-18T08:08:10.176Z,19.90
2022-08-18T08:11:04.812Z,19.89
2022-08-18T08:14:17.592Z,19.97
2022-08-18T08:16:56.654Z,20.12
2022-08-18T08:20:08.480Z,20.29
2022-08-18T08:23:01.827Z,20.47
2022-08-18T08:25:48.889Z,20.64
2022-08-18T08:28:35.762Z,20.71
2022-08-18T08:31:36.137Z,20.93
2022-08-18T08:34:45.691Z,21.16
2022-08-18T08:37:27.864Z,21.38
2022-08-18T08:40:13.034Z,21.52
2022-08-18T08:42:50.680Z,21.60
2022-08-18T08:45:36.595Z,21.68
2022-08-18T08:48:17.790Z,22.15
2022-08-18T08:50:55.421Z,22.50
2022-08-18T08:53:56.015Z,22.65
2022-08-18T08:56:33.861Z,22.81
2022-08-18T08:59:12.197Z,22.96
2022-08-18T09:01:59.446Z,22.87
2022-08-18T09:05:08.193Z,22.88
2022-08-18T09:08:05.674Z,22.88
2022-08-18T09:10:36.641Z,22.89
2022-08-18T09:13:42.211Z,22.89
2022-08-18T09:16:53.795Z,23.13
2022-08-18T09:20:02.883Z,23.35
2022-08-18T09:22:45.728Z,23.33
2022-08-18T09:25:39.298Z,23.56
2022-08-18T09:28:30.405Z,23.54
2022-08-18T09:31:08.942Z,23.53
2022-08-18T09:33:46.399Z,23.38
2022-08-18T09:36:38.084Z,23.24
2022-08-18T09:39:42.240Z,22.88
2022-08-18T09:42:30.098Z,22.77
2022-08-18T09:47:54.579Z,22.52
2022-08-18T09:50:28.444Z,22.36
2022-08-18T09:50:38.293Z,22.64
2022-08-18T09:53:34.087Z,22.17
2022-08-18T09:56:04.933Z,22.00
2022-08-18T09:58:50.013Z,21.94
2022-08-18T10:01:32.931Z,21.88
2022-08-18T10:04:34.781Z,21.77
2022-08-18T10:07:43.469Z,21.50
2022-08-18T10:13:52.732Z,21.17
2022-08-18T10:20:01.721Z,21.07
2022-08-18T10:22:47.783Z,20.98
2022-08-18T10:25:42.065Z,20.92
2022-08-18T10:28:31.707Z,20.98
2022-08-18T10:31:09.724Z,21.04
2022-08-18T10:34:16.441Z,20.87
2022-08-18T10:36:52.452Z,20.42
2022-08-18T10:39:24.654Z,19.97
2022-08-18T10:42:30.941Z,19.82
2022-08-18T10:45:22.069Z,19.71
2022-08-18T10:48:05.330Z,19.72
2022-08-18T10:50:56.364Z,19.71
2022-08-18T10:53:50.732Z,19.69
2022-08-18T10:56:33.953Z,19.70
2022-08-18T10:59:16.398Z,19.79
2022-08-18T11:02:06.271Z,19.90
2022-08-18T11:04:58.343Z,19.96
2022-08-18T11:10:57.489Z,20.32
2022-08-18T11:13:32.845Z,20.78
2022-08-18T11:16:22.542Z,21.05
2022-08-18T11:19:18.278Z,21.16
2022-08-18T11:21:51.174Z,21.11
2022-08-18T11:24:24.966Z,21.11
2022-08-18T11:26:56.503Z,21.11
2022-08-18T11:29:32.941Z,21.13
2022-08-18T11:32:18.989Z,21.20
2022-08-18T11:34:53.854Z,21.11
2022-08-18T11:38:12.339Z,21.36
2022-08-18T11:43:41.103Z,21.56
2022-08-18T11:46:31.830Z,21.61
2022-08-18T11:49:13.947Z,21.82
2022-08-18T11:54:54.121Z,22.32
2022-08-18T11:57:46.474Z,22.64
2022-08-18T12:00:43.126Z,22.79
2022-08-18T12:03:30.785Z,22.84
2022-08-18T12:06:26.666Z,22.82
2022-08-18T12:10:16.747Z,23.07
2022-08-18T12:12:28.143Z,23.22
2022-08-18T12:17:32.769Z,23.64
2022-08-18T12:20:02.302Z,23.97
2022-08-18T12:22:31.636Z,24.36
2022-08-18T12:25:00.432Z,24.51
2022-08-18T12:27:32.233Z,24.78
2022-08-18T12:30:01.872Z,24.95
2022-08-18T12:32:41.820Z,25.20
2022-08-18T12:35:22.211Z,25.39
2022-08-18T12:40:40.093Z,24.98
2022-08-18T12:43:09.126Z,24.84
2022-08-18T12:45:38.117Z,24.87
2022-08-18T12:48:07.776Z,24.83
2022-08-18T12:50:49.753Z,25.02
2022-08-18T12:53:30.171Z,24.63
2022-08-18T12:56:25.755Z,24.57
2022-08-18T12:58:54.781Z,24.52
2022-08-18T13:01:26.794Z,24.38
2022-08-18T13:04:11.530Z,24.39
2022-08-18T13:06:59.827Z,24.41
2022-08-18T13:09:48.040Z,24.39
2022-08-18T13:12:25.571Z,24.08
2022-08-18T13:14:54.982Z,24.16
2022-08-18T13:17:30.449Z,24.30
2022-08-18T13:20:13.476Z,24.69
2022-08-18T13:22:42.737Z,25.07
2022-08-18T13:25:28.770Z,25.54
2022-08-18T13:28:02.210Z,25.71
2022-08-18T13:30:32.414Z,25.69
2022-08-18T13:33:05.815Z,26.14
2022-08-18T13:35:54.175Z,26.06
2022-08-18T13:38:27.381Z,26.42
2022-08-18T13:41:03.568Z,26.86
2022-08-18T13:43:39.435Z,26.59
2022-08-18T13:46:09.852Z,26.40
2022-08-18T13:48:39.607Z,26.24
2022-08-18T13:51:14.205Z,26.56
2022-08-18T13:53:51.000Z,26.68
2022-08-18T13:56:31.354Z,26.93
2022-08-18T13:59:00.315Z,26.98
2022-08-18T14:01:50.091Z,26.56
2022-08-18T14:04:20.106Z,26.54
2022-08-18T14:06:56.954Z,26.42
2022-08-18T14:09:37.163Z,25.70
2022-08-18T14:12:21.521Z,25.32
2022-08-18T14:14:55.747Z,25.10
2022-08-18T14:17:26.372Z,24.99
2022-08-18T14:20:21.295Z,25.06
2022-08-18T14:23:11.220Z,25.08
2022-08-18T14:25:59.876Z,25.26
2022-08-18T14:28:32.618Z,25.27
2022-08-18T14:31:03.459Z,25.16
2022-08-18T14:33:50.576Z,25.24
2022-08-18T14:36:29.880Z,25.13
2022-08-18T14:39:00.472Z,25.16
2022-08-18T14:41:29.741Z,25.50
2022-08-18T14:44:13.345Z,25.54
2022-08-18T14:46:52.137Z,25.62
2022-08-18T14:49:28.062Z,25.62
2022-08-18T14:52:02.214Z,25.58
2022-08-18T14:54:31.904Z,25.56
2022-08-18T14:57:01.867Z,25.46
2022-08-18T14:59:34.585Z,25.41
2022-08-18T15:02:13.489Z,25.52
2022-08-18T15:04:53.045Z,25.58
2022-08-18T15:07:25.074Z,25.52
2022-08-18T15:10:15.435Z,25.48
2022-08-18T15:12:43.520Z,25.54
2022-08-18T15:15:17.745Z,25.51
2022-08-18T15:17:50.109Z,25.43
2022-08-18T15:20:28.787Z,25.23
2022-08-18T15:23:25.077Z,25.10
2022-08-18T15:25:56.802Z,25.01
2022-08-18T15:28:27.969Z,24.96
2022-08-18T15:33:50.164Z,24.87
2022-08-18T15:36:24.053Z,24.79
2022-08-18T15:38:58.747Z,24.83
2022-08-18T15:41:49.281Z,24.81
2022-08-18T15:44:19.378Z,24.80
2022-08-18T15:46:53.436Z,24.78
2022-08-18T15:49:23.075Z,24.74
2022-08-18T15:51:52.713Z,24.76
2022-08-18T15:54:21.048Z,24.78
2022-08-18T15:56:57.973Z,24.76
2022-08-18T15:59:34.271Z,24.74
2022-08-18T16:02:11.966Z,24.72
2022-08-18T16:04:46.332Z,24.76
2022-08-18T16:07:17.910Z,24.77
2022-08-18T16:09:53.243Z,24.77
2022-08-18T16:12:21.433Z,24.77
2022-08-18T16:14:52.548Z,24.83
2022-08-18T16:17:30.025Z,24.86
2022-08-18T16:20:01.342Z,24.85
2022-08-18T16:22:29.703Z,24.86
2022-08-18T16:24:57.884Z,24.87
2022-08-18T16:27:28.448Z,24.87
2022-08-18T16:29:57.384Z,24.86
2022-08-18T16:32:25.955Z,24.84
2022-08-18T16:34:54.554Z,24.81
2022-08-18T16:37:22.864Z,24.80
2022-08-18T16:39:51.089Z,24.80
2022-08-18T16:42:19.390Z,24.78
2022-08-18T16:44:47.584Z,24.80
2022-08-18T16:47:19.708Z,24.76
2022-08-18T16:49:51.237Z,24.75
2022-08-18T16:52:20.479Z,24.75
2022-08-18T16:54:48.795Z,24.75
2022-08-18T16:58:01.295Z,24.77
2022-08-18T17:00:54.857Z,24.84
2022-08-18T17:03:43.495Z,24.89
2022-08-18T17:06:15.182Z,24.86
2022-08-18T17:08:43.971Z,24.86
2022-08-18T17:11:15.085Z,24.79
2022-08-18T17:13:44.599Z,24.78
2022-08-18T17:16:14.979Z,24.83
2022-08-18T17:18:43.655Z,24.81
2022-08-18T17:21:15.058Z,24.83
2022-08-18T17:23:43.413Z,24.88
2022-08-18T17:26:46.333Z,24.90
2022-08-18T17:29:25.971Z,24.92
2022-08-18T17:31:58.973Z,24.91
2022-08-18T17:34:41.884Z,24.87
2022-08-18T17:37:12.751Z,24.81
2022-08-18T17:39:53.820Z,24.69
2022-08-18T17:42:29.281Z,24.61
2022-08-18T17:45:21.767Z,24.55
2022-08-18T17:48:02.038Z,24.48
2022-08-18T17:51:07.034Z,24.42
2022-08-18T17:53:36.316Z,24.32
2022-08-18T17:56:38.395Z,24.27
2022-08-18T17:59:45.506Z,24.25
2022-08-18T18:02:29.824Z,24.25
2022-08-18T18:05:01.926Z,24.27
2022-08-18T18:07:38.422Z,24.26
2022-08-18T18:10:29.203Z,24.23
2022-08-18T18:13:27.772Z,24.21
2022-08-18T18:16:01.389Z,24.14
2022-08-18T18:18:36.982Z,24.16
2022-08-18T18:21:16.596Z,24.10
2022-08-18T18:23:48.755Z,24.01
2022-08-18T18:26:22.587Z,23.91
2022-08-18T18:28:50.909Z,23.82
2022-08-18T18:31:27.665Z,23.75
2022-08-18T18:34:02.158Z,23.67
2022-08-18T18:36:38.621Z,23.62
2022-08-18T18:39:33.705Z,23.59
2022-08-18T18:42:19.400Z,23.57
2022-08-18T18:44:56.603Z,23.47
2022-08-18T18:47:56.699Z,23.38
2022-08-18T18:50:25.844Z,23.27
2022-08-18T18:53:24.525Z,23.21
2022-08-18T18:56:07.333Z,23.06
2022-08-18T18:59:01.551Z,22.99
2022-08-18T19:02:02.666Z,22.93
2022-08-18T19:04:44.784Z,22.83
2022-08-18T19:07:38.949Z,22.79
2022-08-18T19:10:12.756Z,22.69
2022-08-18T19:12:51.167Z,22.57
2022-08-18T19:15:21.192Z,22.52
2022-08-18T19:17:58.933Z,22.48
2022-08-18T19:20:39.405Z,22.47
2022-08-18T19:23:34.243Z,22.47
2022-08-18T19:26:14.338Z,22.47
2022-08-18T19:29:12.038Z,22.45
2022-08-18T19:31:48.942Z,22.41
2022-08-18T19:34:30.017Z,22.34
2022-08-18T19:37:11.629Z,22.31
2022-08-18T19:39:50.291Z,22.27
2022-08-18T19:42:24.636Z,22.22
2022-08-18T19:45:15.822Z,22.20
2022-08-18T19:48:00.217Z,22.20
2022-08-18T19:50:34.181Z,22.21
2022-08-18T19:53:32.827Z,22.20
2022-08-18T19:56:21.413Z,22.17
2022-08-18T19:59:18.195Z,22.11
2022-08-18T20:01:52.132Z,22.11
2022-08-18T20:04:50.108Z,22.12
2022-08-18T20:08:02.147Z,22.11
2022-08-18T20:11:00.536Z,22.14
2022-08-18T20:13:33.899Z,22.17
2022-08-18T20:16:10.988Z,22.15
2022-08-18T20:18:49.668Z,22.09
2022-08-18T20:21:18.463Z,22.09
2022-08-18T20:24:05.959Z,22.01
2022-08-18T20:26:39.869Z,21.98
2022-08-18T20:29:09.465Z,21.96
2022-08-18T20:31:49.901Z,21.88
2022-08-18T20:34:25.203Z,21.96
2022-08-18T20:36:55.897Z,21.97
2022-08-18T20:39:44.308Z,21.90
2022-08-18T20:42:21.893Z,21.82
2022-08-18T20:44:51.940Z,21.83
2022-08-18T20:47:23.168Z,21.76
2022-08-18T20:50:03.721Z,21.73
2022-08-18T20:53:12.657Z,21.75
2022-08-18T20:55:57.252Z,21.82
2022-08-18T20:58:32.160Z,21.90
2022-08-18T21:01:01.846Z,21.95
2022-08-18T21:03:42.974Z,22.04
2022-08-18T21:06:15.461Z,22.08
2022-08-18T21:08:51.068Z,22.03
2022-08-18T21:11:32.095Z,21.95
2022-08-18T21:14:03.948Z,21.93
2022-08-18T21:16:39.424Z,21.97
2022-08-18T21:19:13.695Z,21.99
2022-08-18T21:21:45.702Z,22.10
2022-08-18T21:24:50.517Z,22.11
2022-08-18T21:27:36.126Z,22.10
2022-08-18T21:30:20.658Z,22.05
2022-08-18T21:32:49.802Z,21.95
2022-08-18T21:35:38.066Z,21.99
2022-08-18T21:38:07.655Z,22.03
2022-08-18T21:40:43.410Z,22.01
2022-08-18T21:43:14.176Z,21.87
2022-08-18T21:45:59.237Z,21.83
2022-08-18T21:48:30.266Z,21.78
2022-08-18T21:51:02.086Z,21.80
2022-08-18T21:53:33.808Z,21.81
2022-08-18T21:56:03.046Z,21.82
2022-08-18T21:58:34.469Z,21.77
2022-08-18T22:01:17.510Z,21.71
2022-08-18T22:04:03.019Z,21.69
2022-08-18T22:06:34.162Z,21.70
2022-08-18T22:09:29.654Z,21.73
2022-08-18T22:12:52.757Z,21.73
2022-08-18T22:15:26.995Z,21.63
2022-08-18T22:18:07.970Z,21.61
2022-08-18T22:20:52.818Z,21.62
2022-08-18T22:24:06.226Z,21.67
2022-08-18T22:26:37.488Z,21.70
2022-08-18T22:29:15.878Z,21.73
2022-08-18T22:31:47.128Z,21.71
2022-08-18T22:34:17.602Z,21.66
2022-08-18T22:37:07.361Z,21.63
2022-08-18T22:39:41.165Z,21.62
2022-08-18T22:42:09.747Z,21.65
2022-08-18T22:44:38.275Z,21.62
2022-08-18T22:47:07.620Z,21.64
2022-08-18T22:49:37.090Z,21.62
2022-08-18T22:52:12.083Z,21.60
2022-08-18T22:54:40.663Z,21.47
2022-08-18T22:57:11.706Z,21.44
2022-08-18T22:59:42.762Z,21.45
2022-08-18T23:02:11.332Z,21.44
2022-08-18T23:04:40.755Z,21.41
2022-08-18T23:07:09.266Z,21.36
2022-08-18T23:09:39.588Z,21.23
2022-08-18T23:12:13.637Z,21.14
2022-08-18T23:14:47.316Z,21.13
2022-08-18T23:17:21.485Z,21.13
2022-08-18T23:19:52.274Z,21.01
2022-08-18T23:22:20.705Z,20.85
2022-08-18T23:24:48.876Z,20.74
2022-08-18T23:27:18.135Z,20.65
2022-08-18T23:29:46.392Z,20.62
2022-08-18T23:32:14.869Z,20.60
2022-08-18T23:34:43.076Z,20.61
2022-08-18T23:37:11.267Z,20.66
2022-08-18T23:39:39.737Z,20.71
2022-08-18T23:42:13.218Z,20.83
2022-08-18T23:44:42.326Z,20.82
2022-08-18T23:47:10.581Z,20.84
2022-08-18T23:49:41.671Z,20.87
2022-08-18T23:52:12.577Z,20.88
2022-08-18T23:54:40.775Z,20.87
2022-08-18T23:57:08.980Z,20.88
2022-08-18T23:59:37.218Z,20.89
